89XS weather

Joe Rye Heliport
Pearland, Texas, United States

Public forecast

Using degrees Fahrenheit for public forecast. Weather courtesy of forecast.io.

METAR (pilot weather report)

Closest report is William P Hobby Airport, 3.8 nm (7.1 km) NNE. Retrieved 2019/09/15 03:53 UTC (37 minutes ago):

KHOU 150353Z 00000KT 10SM CLR 28/21 A3005 RMK AO2 SLP178 T02780211

TAF (pilot weather forecast)

Forecast is more than 12 hours old.

Closest forecast is William P Hobby Airport, 3.8 nm (7.1 km) NNE. Retrieved 2019/09/14 00:22 UTC (1 day ago):

TAF KHOU 142320Z 1500/1524 12011KT P6SM FEW060 FM150200 VRB04KT P6SM SCT250 FM151500 06008KT P6SM FEW040 FM152100 08009KT P6SM VCSH SCT050